Terminal Aerodrome Forecast
Issued by NWS

Home | Current Version | Previous Version | Text Only | Print | Product List | Glossary On
Versions: 1 2 3 4 5 6 7 8 9 10 11 12 13 14 15
000
FTUS43 KDLH 301137
TAFBRD
TAF
KBRD 301137Z 3012/3112 27010KT P6SM SKC
     FM301500 29012G20KT P6SM SCT080
     FM302000 30014G25KT P6SM BKN070
     FM310100 28007KT P6SM SKC=

USA.gov is the U.S. government's official web portal to all federal, state and local government web resources and services.